createdAt,value
2022-09-03T00:00:31.488Z,3.97
2022-09-03T00:03:05.157Z,5.20
2022-09-03T00:05:39.380Z,4.40
2022-09-03T00:08:15.580Z,4.25
2022-09-03T00:10:52.357Z,4.68
2022-09-03T00:13:25.023Z,4.35
2022-09-03T00:15:54.709Z,4.10
2022-09-03T00:18:27.872Z,4.20
2022-09-03T00:20:59.702Z,4.35
2022-09-03T00:23:31.828Z,4.38
2022-09-03T00:26:17.429Z,4.00
2022-09-03T00:28:48.565Z,4.32
2022-09-03T00:31:27.409Z,4.38
2022-09-03T00:34:01.174Z,4.65
2022-09-03T00:36:35.704Z,4.70
2022-09-03T00:39:03.754Z,4.78
2022-09-03T00:41:41.503Z,4.15
2022-09-03T00:44:55.154Z,4.30
2022-09-03T00:47:28.696Z,4.50
2022-09-03T00:50:09.291Z,4.32
2022-09-03T00:52:47.425Z,4.55
2022-09-03T00:55:28.357Z,3.95
2022-09-03T00:58:14.776Z,4.88
2022-09-03T01:00:45.621Z,4.65
2022-09-03T01:03:19.311Z,5.22
2022-09-03T01:06:06.487Z,4.78
2022-09-03T01:08:54.119Z,4.47
2022-09-03T01:11:29.864Z,4.72
2022-09-03T01:14:16.241Z,5.05
2022-09-03T01:16:52.513Z,4.55
2022-09-03T01:19:43.238Z,4.30
2022-09-03T01:22:29.061Z,5.13
2022-09-03T01:25:14.001Z,4.80
2022-09-03T01:27:54.316Z,4.93
2022-09-03T01:30:24.193Z,5.88
2022-09-03T01:33:05.849Z,5.25
2022-09-03T01:35:45.213Z,5.95
2022-09-03T01:38:25.330Z,5.32
2022-09-03T01:41:24.696Z,4.75
2022-09-03T01:44:03.501Z,4.68
2022-09-03T01:46:40.168Z,5.20
2022-09-03T01:49:22.773Z,5.53
2022-09-03T01:52:00.358Z,4.57
2022-09-03T01:54:44.198Z,4.45
2022-09-03T01:57:49.540Z,4.93
2022-09-03T02:00:20.187Z,4.70
2022-09-03T02:02:52.072Z,4.88
2022-09-03T02:05:24.911Z,4.82
2022-09-03T02:07:58.284Z,5.10
2022-09-03T02:10:31.414Z,5.25
2022-09-03T02:13:06.124Z,5.00
2022-09-03T02:15:36.555Z,5.00
2022-09-03T02:18:11.245Z,5.15
2022-09-03T02:20:39.696Z,4.90
2022-09-03T02:23:07.618Z,5.22
2022-09-03T02:25:39.979Z,5.00
2022-09-03T02:28:16.945Z,4.70
2022-09-03T02:30:45.661Z,4.88
2022-09-03T02:33:15.334Z,5.25
2022-09-03T02:35:43.785Z,4.97
2022-09-03T02:38:13.150Z,4.95
2022-09-03T02:40:40.896Z,5.40
2022-09-03T02:43:15.032Z,5.30
2022-09-03T02:45:50.294Z,4.82
2022-09-03T02:48:23.950Z,5.40
2022-09-03T02:50:51.828Z,4.63
2022-09-03T02:53:19.608Z,5.45
2022-09-03T02:55:47.551Z,5.50
2022-09-03T02:58:15.510Z,5.50
2022-09-03T03:00:43.433Z,5.55
2022-09-03T03:03:11.202Z,5.22
2022-09-03T03:05:46.051Z,4.82
2022-09-03T03:08:15.360Z,5.15
2022-09-03T03:10:44.743Z,5.30
2022-09-03T03:13:14.968Z,5.30
2022-09-03T03:15:43.279Z,5.15
2022-09-03T03:18:12.276Z,5.30
2022-09-03T03:20:40.199Z,5.40
2022-09-03T03:23:09.813Z,5.85
2022-09-03T03:25:39.749Z,5.68
2022-09-03T03:28:08.357Z,5.40
2022-09-03T03:30:40.312Z,5.88
2022-09-03T03:33:08.298Z,5.70
2022-09-03T03:35:36.708Z,5.50
2022-09-03T03:38:05.049Z,5.28
2022-09-03T03:40:34.742Z,5.45
2022-09-03T03:43:04.973Z,5.45
2022-09-03T03:45:32.993Z,5.45
2022-09-03T03:48:00.778Z,5.28
2022-09-03T03:50:29.037Z,5.47
2022-09-03T03:53:00.695Z,5.63
2022-09-03T03:55:29.466Z,5.00
2022-09-03T03:58:04.359Z,5.35
2022-09-03T04:00:32.225Z,5.32
2022-09-03T04:03:00.807Z,5.10
2022-09-03T04:05:28.658Z,5.85
2022-09-03T04:08:02.713Z,6.07
2022-09-03T04:10:30.503Z,5.43
2022-09-03T04:12:58.266Z,5.82
2022-09-03T04:15:27.540Z,5.82
2022-09-03T04:18:01.727Z,5.57
2022-09-03T04:20:29.575Z,5.97
2022-09-03T04:23:01.527Z,5.97
2022-09-03T04:25:29.301Z,5.70
2022-09-03T04:27:57.110Z,6.03
2022-09-03T04:30:25.002Z,5.55
2022-09-03T04:32:54.104Z,5.68
2022-09-03T04:35:23.658Z,5.50
2022-09-03T04:37:51.466Z,5.47
2022-09-03T04:40:19.359Z,4.65
2022-09-03T04:42:47.203Z,5.15
2022-09-03T04:45:18.810Z,4.72
2022-09-03T04:47:47.526Z,4.95
2022-09-03T04:50:16.989Z,4.70
2022-09-03T04:52:45.078Z,5.18
2022-09-03T04:55:13.183Z,4.93
2022-09-03T04:57:43.045Z,4.75
2022-09-03T05:00:12.371Z,5.00
2022-09-03T05:02:40.191Z,4.93
2022-09-03T05:05:08.579Z,5.50
2022-09-03T05:07:41.221Z,5.47
2022-09-03T05:10:12.991Z,4.82
2022-09-03T05:12:43.349Z,5.68
2022-09-03T05:15:11.342Z,5.13
2022-09-03T05:17:39.554Z,4.65
2022-09-03T05:20:08.575Z,4.78
2022-09-03T05:22:37.756Z,5.30
2022-09-03T05:25:06.299Z,4.72
2022-09-03T05:27:34.091Z,4.38
2022-09-03T05:30:03.741Z,4.70
2022-09-03T05:32:32.842Z,5.55
2022-09-03T05:35:00.593Z,5.95
2022-09-03T05:37:28.337Z,5.53
2022-09-03T05:39:57.500Z,5.90
2022-09-03T05:42:25.891Z,6.18
2022-09-03T05:44:54.772Z,5.60
2022-09-03T05:47:22.570Z,5.80
2022-09-03T05:49:50.366Z,5.60
2022-09-03T05:52:19.640Z,5.15
2022-09-03T05:54:48.011Z,5.28
2022-09-03T05:57:17.175Z,4.93
2022-09-03T05:59:44.969Z,4.75
2022-09-03T06:02:12.857Z,4.47
2022-09-03T06:04:42.457Z,3.88
2022-09-03T06:07:10.257Z,4.20
2022-09-03T06:09:38.045Z,4.85
2022-09-03T06:12:06.147Z,4.97
2022-09-03T06:14:35.298Z,4.35
2022-09-03T06:17:03.087Z,4.07
2022-09-03T06:19:30.870Z,4.05
2022-09-03T06:21:58.650Z,4.25
2022-09-03T06:24:28.264Z,4.15
2022-09-03T06:26:56.618Z,5.05
2022-09-03T06:29:24.538Z,4.80
2022-09-03T06:31:53.693Z,4.78
2022-09-03T06:34:22.760Z,5.45
2022-09-03T06:36:50.685Z,4.60
2022-09-03T06:39:18.445Z,4.32
2022-09-03T06:41:51.779Z,3.90
2022-09-03T06:44:19.566Z,4.05
2022-09-03T06:46:48.494Z,4.00
2022-09-03T06:49:17.653Z,4.22
2022-09-03T06:51:45.456Z,4.13
2022-09-03T06:54:13.867Z,4.40
2022-09-03T06:56:42.608Z,4.05
2022-09-03T06:59:12.132Z,3.85
2022-09-03T07:01:43.965Z,3.72
2022-09-03T07:04:14.656Z,3.90
2022-09-03T07:06:46.692Z,3.40
2022-09-03T07:09:15.497Z,3.42
2022-09-03T07:11:48.141Z,3.65
2022-09-03T07:14:17.773Z,4.00
2022-09-03T07:16:46.141Z,4.05
2022-09-03T07:19:14.483Z,4.00
2022-09-03T07:21:49.653Z,4.10
2022-09-03T07:24:18.615Z,3.65
2022-09-03T07:26:47.097Z,4.47
2022-09-03T07:29:16.102Z,4.38
2022-09-03T07:31:45.077Z,4.57
2022-09-03T07:34:15.106Z,4.15
2022-09-03T07:36:48.743Z,3.78
2022-09-03T07:39:17.858Z,4.43
2022-09-03T07:41:46.782Z,4.85
2022-09-03T07:44:16.164Z,4.38
2022-09-03T07:46:46.151Z,4.70
2022-09-03T07:49:14.492Z,4.80
2022-09-03T07:51:42.314Z,5.10
2022-09-03T07:54:12.243Z,4.88
2022-09-03T07:56:41.111Z,5.05
2022-09-03T07:59:10.097Z,5.63
2022-09-03T08:01:41.238Z,4.60
2022-09-03T08:04:10.949Z,4.70
2022-09-03T08:06:39.532Z,4.60
2022-09-03T08:09:08.971Z,4.40
2022-09-03T08:11:40.861Z,5.05
2022-09-03T08:14:10.458Z,4.75
2022-09-03T08:16:40.246Z,4.55
2022-09-03T08:19:08.873Z,4.80
2022-09-03T08:21:36.807Z,5.18
2022-09-03T08:24:05.013Z,4.93
2022-09-03T08:26:34.899Z,4.72
2022-09-03T08:29:04.966Z,4.80
2022-09-03T08:31:33.753Z,4.50
2022-09-03T08:34:06.811Z,4.70
2022-09-03T08:36:36.786Z,4.30
2022-09-03T08:39:09.751Z,4.60
2022-09-03T08:41:55.085Z,5.22
2022-09-03T08:44:29.450Z,4.95
2022-09-03T08:47:02.101Z,5.55
2022-09-03T08:49:40.879Z,5.13
2022-09-03T08:52:21.310Z,5.10
2022-09-03T08:54:51.670Z,4.57
2022-09-03T08:57:21.874Z,4.32
2022-09-03T08:59:55.992Z,4.30
2022-09-03T09:02:35.358Z,4.35
2022-09-03T09:05:13.630Z,4.28
2022-09-03T09:07:53.360Z,3.83
2022-09-03T09:10:28.232Z,3.63
2022-09-03T09:13:10.496Z,3.33
2022-09-03T09:15:50.038Z,3.53
2022-09-03T09:18:25.029Z,3.70
2022-09-03T09:20:57.389Z,3.55
2022-09-03T09:23:30.558Z,3.30
2022-09-03T09:26:01.895Z,3.60
2022-09-03T09:28:36.408Z,3.60
2022-09-03T09:31:08.758Z,3.38
2022-09-03T09:33:39.603Z,3.70
2022-09-03T09:36:12.167Z,3.53
2022-09-03T09:38:43.511Z,3.20
2022-09-03T09:41:13.463Z,3.20
2022-09-03T09:43:42.192Z,2.95
2022-09-03T09:46:15.227Z,2.95
2022-09-03T09:48:50.817Z,3.00
2022-09-03T09:54:01.796Z,2.70
2022-09-03T09:56:29.863Z,2.55
2022-09-03T09:59:06.099Z,2.30
2022-09-03T10:01:38.117Z,2.20
2022-09-03T10:04:12.181Z,2.10
2022-09-03T10:06:57.128Z,2.08
2022-09-03T10:09:31.496Z,2.10
2022-09-03T10:12:11.174Z,2.10
2022-09-03T10:14:45.488Z,2.10
2022-09-03T10:17:22.425Z,2.30
2022-09-03T10:20:26.129Z,2.35
2022-09-03T10:22:57.603Z,2.30
2022-09-03T10:25:30.325Z,2.40
2022-09-03T10:28:01.970Z,2.40
2022-09-03T10:30:31.042Z,2.42
2022-09-03T10:33:10.072Z,2.20
2022-09-03T10:35:47.299Z,2.10
2022-09-03T10:38:22.933Z,2.53
2022-09-03T10:40:56.237Z,2.38
2022-09-03T10:43:46.096Z,2.00
2022-09-03T10:46:23.407Z,2.03
2022-09-03T10:49:14.157Z,2.28
2022-09-03T10:51:49.491Z,2.03
2022-09-03T10:54:38.568Z,1.77
2022-09-03T10:57:17.560Z,1.73
2022-09-03T11:00:01.902Z,1.98
2022-09-03T11:03:22.114Z,2.15
2022-09-03T11:06:01.862Z,2.10
2022-09-03T11:08:34.359Z,1.75
2022-09-03T11:11:13.106Z,1.92
2022-09-03T11:13:46.010Z,1.40
2022-09-03T11:16:22.090Z,2.10
2022-09-03T11:18:54.955Z,1.90
2022-09-03T11:21:27.573Z,1.70
2022-09-03T11:24:07.940Z,1.98
2022-09-03T11:26:36.605Z,1.83
2022-09-03T11:29:09.154Z,1.90
2022-09-03T11:31:58.812Z,1.75
2022-09-03T11:34:33.862Z,1.80
2022-09-03T11:37:19.094Z,1.80
2022-09-03T11:39:56.586Z,1.90
2022-09-03T11:42:35.264Z,1.50
2022-09-03T11:45:23.112Z,1.60
2022-09-03T11:47:51.978Z,1.55
2022-09-03T11:50:25.667Z,1.75
2022-09-03T11:52:56.946Z,1.65
2022-09-03T11:55:38.356Z,1.77
2022-09-03T11:58:14.550Z,1.80
2022-09-03T12:00:44.870Z,1.52
2022-09-03T12:03:18.034Z,1.80
2022-09-03T12:05:59.723Z,1.75
2022-09-03T12:08:53.346Z,1.60
2022-09-03T12:11:38.313Z,1.52
2022-09-03T12:14:14.855Z,1.70
2022-09-03T12:17:03.531Z,1.85
2022-09-03T12:19:40.823Z,1.60
2022-09-03T12:22:13.942Z,1.38
2022-09-03T12:24:45.001Z,1.60
2022-09-03T12:27:17.593Z,1.70
2022-09-03T12:29:59.908Z,1.60
2022-09-03T12:32:30.182Z,1.40
2022-09-03T12:34:57.997Z,1.65
2022-09-03T12:40:23.137Z,1.48
2022-09-03T12:42:52.057Z,1.85
2022-09-03T12:45:21.989Z,1.50
2022-09-03T12:47:50.444Z,1.70
2022-09-03T12:50:20.280Z,1.80
2022-09-03T12:52:51.932Z,1.85
2022-09-03T12:55:36.786Z,1.80
2022-09-03T12:58:13.612Z,1.38
2022-09-03T13:00:47.111Z,1.80
2022-09-03T13:03:20.436Z,1.40
2022-09-03T13:05:52.445Z,1.50
2022-09-03T13:08:24.327Z,1.60
2022-09-03T13:10:57.566Z,1.58
2022-09-03T13:13:27.344Z,1.60
2022-09-03T13:16:28.060Z,1.98
2022-09-03T13:19:03.307Z,1.60
2022-09-03T13:21:42.838Z,1.70
2022-09-03T13:24:32.176Z,1.60
2022-09-03T13:27:12.186Z,1.80
2022-09-03T13:29:49.348Z,1.60
2022-09-03T13:32:33.027Z,1.60
2022-09-03T13:35:10.273Z,1.40
2022-09-03T13:37:44.365Z,1.55
2022-09-03T13:40:20.651Z,1.50
2022-09-03T13:42:55.600Z,1.60
2022-09-03T13:45:30.416Z,1.80
2022-09-03T13:48:21.789Z,1.80
2022-09-03T13:50:59.621Z,1.42
2022-09-03T13:53:38.367Z,2.08
2022-09-03T13:56:16.967Z,2.20
2022-09-03T13:58:49.993Z,1.90
2022-09-03T14:01:24.372Z,1.90
2022-09-03T14:03:56.721Z,2.30
2022-09-03T14:06:41.001Z,1.88
2022-09-03T14:09:16.555Z,2.20
2022-09-03T14:11:54.823Z,1.95
2022-09-03T14:14:38.463Z,3.38
2022-09-03T14:17:14.719Z,2.03
2022-09-03T14:19:49.878Z,2.67
2022-09-03T14:22:23.197Z,2.75
2022-09-03T14:24:56.495Z,2.08
2022-09-03T14:27:27.583Z,2.05
2022-09-03T14:30:03.693Z,2.35
2022-09-03T14:32:49.183Z,3.28
2022-09-03T14:35:32.724Z,3.45
2022-09-03T14:38:14.859Z,2.72
2022-09-03T14:40:46.625Z,2.80
2022-09-03T14:43:35.667Z,3.15
2022-09-03T14:46:17.924Z,2.53
2022-09-03T14:49:01.865Z,3.65
2022-09-03T14:51:44.359Z,3.60
2022-09-03T14:54:46.777Z,3.75
2022-09-03T14:57:29.929Z,2.67
2022-09-03T15:00:06.338Z,2.90
2022-09-03T15:02:57.881Z,3.13
2022-09-03T15:05:44.020Z,3.28
2022-09-03T15:08:24.107Z,2.90
2022-09-03T15:10:57.041Z,4.43
2022-09-03T15:13:28.278Z,3.28
2022-09-03T15:16:10.095Z,3.67
2022-09-03T15:18:55.350Z,3.28
2022-09-03T15:21:33.571Z,3.30
2022-09-03T15:24:08.456Z,2.85
2022-09-03T15:26:48.415Z,2.70
2022-09-03T15:29:38.974Z,2.92
2022-09-03T15:32:18.186Z,3.53
2022-09-03T15:35:02.211Z,3.45
2022-09-03T15:37:37.392Z,3.28
2022-09-03T15:40:10.957Z,2.70
2022-09-03T15:42:39.829Z,3.10
2022-09-03T15:45:17.818Z,3.33
2022-09-03T15:47:54.438Z,2.67
2022-09-03T15:50:35.629Z,4.35
2022-09-03T15:53:16.044Z,24.20
2022-09-03T15:55:45.747Z,43.80
2022-09-03T15:58:26.607Z,20.02
2022-09-03T16:01:00.535Z,8.02
2022-09-03T16:03:47.121Z,10.15
2022-09-03T16:06:38.063Z,8.55
2022-09-03T16:09:19.718Z,4.80
2022-09-03T16:11:57.121Z,4.45
2022-09-03T16:14:30.815Z,3.55
2022-09-03T16:17:05.905Z,3.47
2022-09-03T16:19:42.921Z,3.35
2022-09-03T16:22:19.847Z,3.80
2022-09-03T16:24:52.010Z,3.60
2022-09-03T16:27:24.628Z,3.58
2022-09-03T16:29:59.853Z,3.65
2022-09-03T16:33:02.788Z,10.90
2022-09-03T16:35:43.010Z,4.72
2022-09-03T16:38:35.254Z,34.28
2022-09-03T16:41:17.598Z,50.45
2022-09-03T16:43:51.672Z,13.10
2022-09-03T16:46:26.313Z,29.38
2022-09-03T16:49:16.743Z,45.80
2022-09-03T16:51:55.631Z,5.28
2022-09-03T16:54:57.196Z,14.30
2022-09-03T16:57:36.808Z,16.98
2022-09-03T17:00:10.113Z,22.38
2022-09-03T17:03:26.499Z,11.07
2022-09-03T17:06:29.837Z,2.20
2022-09-03T17:09:08.440Z,2.42
2022-09-03T17:11:49.537Z,1.98
2022-09-03T17:14:37.745Z,2.00
2022-09-03T17:17:13.792Z,2.58
2022-09-03T17:19:52.708Z,2.85
2022-09-03T17:22:34.190Z,2.80
2022-09-03T17:25:07.817Z,2.55
2022-09-03T17:27:57.187Z,2.30
2022-09-03T17:30:40.592Z,6.07
2022-09-03T17:33:55.670Z,3.20
2022-09-03T17:36:27.150Z,3.00
2022-09-03T17:39:38.082Z,2.40
2022-09-03T17:42:13.769Z,2.33
2022-09-03T17:44:55.719Z,2.33
2022-09-03T17:47:42.571Z,2.30
2022-09-03T17:50:18.052Z,3.00
2022-09-03T17:52:50.719Z,2.25
2022-09-03T17:55:25.672Z,2.17
2022-09-03T17:57:59.861Z,2.17
2022-09-03T18:00:35.586Z,3.00
2022-09-03T18:03:12.178Z,2.30
2022-09-03T18:05:47.070Z,2.20
2022-09-03T18:08:22.047Z,1.95
2022-09-03T18:11:02.957Z,2.15
2022-09-03T18:13:44.597Z,2.40
2022-09-03T18:16:20.378Z,2.30
2022-09-03T18:18:53.017Z,2.67
2022-09-03T18:21:41.313Z,2.13
2022-09-03T18:24:42.412Z,2.25
2022-09-03T18:27:30.712Z,2.17
2022-09-03T18:30:21.039Z,2.13
2022-09-03T18:33:07.780Z,2.75
2022-09-03T18:35:53.228Z,2.42
2022-09-03T18:38:45.094Z,1.90
2022-09-03T18:41:45.604Z,2.20
2022-09-03T18:44:40.964Z,2.60
2022-09-03T18:48:01.573Z,2.05
2022-09-03T18:50:53.354Z,3.50
2022-09-03T18:53:50.297Z,26.38
2022-09-03T18:56:45.697Z,6.63
2022-09-03T18:59:47.129Z,2.53
2022-09-03T19:02:44.801Z,2.38
2022-09-03T19:05:37.669Z,2.53
2022-09-03T19:08:32.929Z,2.40
2022-09-03T19:11:26.362Z,2.30
2022-09-03T19:14:11.693Z,2.53
2022-09-03T19:17:11.261Z,2.28
2022-09-03T19:20:07.623Z,3.00
2022-09-03T19:22:55.015Z,2.55
2022-09-03T19:25:43.170Z,2.55
2022-09-03T19:28:34.695Z,2.90
2022-09-03T19:31:50.357Z,2.78
2022-09-03T19:34:56.336Z,2.70
2022-09-03T19:37:46.807Z,2.77
2022-09-03T19:40:50.673Z,2.70
2022-09-03T19:43:44.513Z,2.58
2022-09-03T19:46:37.503Z,10.70
2022-09-03T19:49:35.032Z,10.10
2022-09-03T19:52:26.215Z,4.65
2022-09-03T19:55:14.559Z,3.85
2022-09-03T19:58:07.714Z,2.63
2022-09-03T20:01:02.285Z,2.80
2022-09-03T20:03:48.381Z,2.92
2022-09-03T20:09:25.819Z,3.28
2022-09-03T20:11:54.940Z,3.47
2022-09-03T20:14:24.191Z,2.78
2022-09-03T20:17:06.898Z,3.05
2022-09-03T20:19:47.610Z,2.55
2022-09-03T20:22:23.718Z,2.90
2022-09-03T20:25:07.971Z,2.95
2022-09-03T20:27:46.558Z,3.25
2022-09-03T20:30:20.059Z,2.90
2022-09-03T20:33:14.325Z,2.83
2022-09-03T20:35:55.421Z,2.80
2022-09-03T20:38:42.088Z,2.92
2022-09-03T20:41:21.001Z,3.67
2022-09-03T20:44:02.096Z,3.42
2022-09-03T20:46:45.486Z,3.55
2022-09-03T20:49:24.923Z,3.42
2022-09-03T20:51:58.685Z,3.45
2022-09-03T20:54:32.199Z,3.33
2022-09-03T20:57:14.414Z,2.92
2022-09-03T21:00:00.084Z,2.67
2022-09-03T21:02:38.872Z,3.15
2022-09-03T21:05:19.081Z,2.50
2022-09-03T21:07:56.696Z,3.10
2022-09-03T21:10:33.452Z,2.90
2022-09-03T21:13:13.135Z,2.75
2022-09-03T21:15:56.419Z,2.78
2022-09-03T21:18:36.307Z,2.97
2022-09-03T21:21:17.763Z,3.22
2022-09-03T21:23:49.849Z,2.90
2022-09-03T21:26:23.017Z,3.47
2022-09-03T21:28:59.479Z,3.13
2022-09-03T21:31:38.411Z,3.25
2022-09-03T21:34:15.004Z,3.22
2022-09-03T21:36:44.537Z,3.40
2022-09-03T21:39:16.642Z,2.70
2022-09-03T21:41:50.582Z,2.85
2022-09-03T21:44:24.016Z,3.15
2022-09-03T21:46:57.624Z,3.05
2022-09-03T21:49:34.414Z,2.95
2022-09-03T21:52:05.906Z,2.92
2022-09-03T21:54:35.417Z,2.60
2022-09-03T21:57:14.850Z,3.10
2022-09-03T22:00:07.609Z,2.97
2022-09-03T22:02:36.437Z,2.70
2022-09-03T22:05:06.506Z,3.20
2022-09-03T22:07:53.371Z,3.67
2022-09-03T22:10:26.817Z,2.97
2022-09-03T22:13:04.353Z,2.90
2022-09-03T22:15:33.212Z,3.00
2022-09-03T22:18:07.423Z,3.17
2022-09-03T22:20:38.117Z,3.00
2022-09-03T22:23:12.135Z,2.90
2022-09-03T22:25:49.108Z,2.80
2022-09-03T22:28:28.600Z,3.03
2022-09-03T22:31:03.429Z,2.97
2022-09-03T22:33:36.834Z,3.40
2022-09-03T22:36:14.365Z,3.75
2022-09-03T22:39:12.259Z,2.85
2022-09-03T22:41:57.512Z,2.78
2022-09-03T22:44:36.495Z,2.45
2022-09-03T22:47:19.794Z,2.38
2022-09-03T22:49:53.267Z,2.42
2022-09-03T22:52:31.728Z,2.90
2022-09-03T22:55:16.219Z,2.58
2022-09-03T22:57:52.962Z,3.15
2022-09-03T23:06:32.945Z,2.30
2022-09-03T23:09:05.303Z,2.95
2022-09-03T23:11:39.528Z,3.28
2022-09-03T23:14:10.044Z,2.85
2022-09-03T23:16:41.970Z,2.70
2022-09-03T23:21:54.566Z,3.03
2022-09-03T23:24:29.351Z,3.05
2022-09-03T23:26:57.111Z,3.22
2022-09-03T23:29:29.718Z,2.70
2022-09-03T23:31:58.184Z,2.60
2022-09-03T23:34:26.996Z,2.70
2022-09-03T23:37:39.036Z,3.05
2022-09-03T23:40:24.104Z,2.55
2022-09-03T23:43:06.576Z,2.70
2022-09-03T23:45:44.271Z,3.42
2022-09-03T23:48:23.951Z,2.88
2022-09-03T23:51:05.821Z,3.35
2022-09-03T23:53:48.522Z,2.72
2022-09-03T23:56:34.614Z,3.20
